Time;durP1;ratioP1;P1;durP2;ratioP2;P2;SDS_P1;SDS_P2;PMS_P1;PMS_P2;Temp;Humidity;BMP_temperature;BMP_pressure;BME280_temperature;BME280_humidity;BME280_pressure;Samples;Min_cycle;Max_cycle;Signal;HPM_P1;HPM_P2
2021/07/03 00:00:18;;;;;;;6.95;3.58;;;;;;;22.74;50.77;101022.16;5047064;28;20071;-66
2021/07/03 00:02:43;;;;;;;5.72;3.38;;;;;;;22.74;50.41;101014.94;5050399;28;20387;-66
2021/07/03 00:05:10;;;;;;;5.55;3.50;;;;;;;22.74;50.54;101017.63;5043037;28;20049;-66
2021/07/03 00:07:35;;;;;;;5.82;3.40;;;;;;;22.75;50.42;101015.75;5050847;28;20045;-66
2021/07/03 00:10:02;;;;;;;6.40;3.10;;;;;;;22.75;50.56;101013.91;5053674;28;20067;-66
2021/07/03 00:12:28;;;;;;;7.63;3.75;;;;;;;22.75;50.86;101013.09;5049322;28;20040;-66
2021/07/03 00:14:53;;;;;;;5.05;3.20;;;;;;;22.73;50.71;101015.97;5034432;28;20048;-66
2021/07/03 00:17:19;;;;;;;4.85;2.90;;;;;;;22.76;50.61;101010.19;5018088;28;20044;-66
2021/07/03 00:19:44;;;;;;;5.65;3.22;;;;;;;22.76;50.61;101012.06;5049756;28;20040;-66
2021/07/03 00:22:09;;;;;;;8.80;3.40;;;;;;;22.76;50.63;101007.53;5045933;28;20120;-66
2021/07/03 00:24:35;;;;;;;4.88;3.28;;;;;;;22.76;50.58;101010.19;5029832;28;20133;-66
2021/07/03 00:27:00;;;;;;;5.85;3.17;;;;;;;22.76;50.76;101006.72;5043166;28;20041;-66
2021/07/03 00:29:26;;;;;;;3.75;2.80;;;;;;;22.76;50.34;101001.34;5052558;28;20037;-66
2021/07/03 00:31:51;;;;;;;4.35;3.00;;;;;;;22.76;50.41;100994.16;5049629;28;20503;-66
2021/07/03 00:34:16;;;;;;;5.93;2.67;;;;;;;22.77;50.43;101000.31;5048317;28;20079;-66
2021/07/03 00:36:42;;;;;;;5.10;3.33;;;;;;;22.78;50.59;100993.94;5055210;28;20028;-66
2021/07/03 00:39:07;;;;;;;5.05;2.72;;;;;;;22.77;50.51;100989.63;5052419;28;20044;-66
2021/07/03 00:41:33;;;;;;;4.60;2.92;;;;;;;22.76;50.29;100977.28;5048276;28;20033;-66
2021/07/03 00:43:58;;;;;;;4.90;3.13;;;;;;;22.77;50.52;100987.78;5053632;28;20037;-66
2021/07/03 00:46:24;;;;;;;5.00;3.00;;;;;;;22.77;50.36;100982.41;5046956;28;20033;-66
2021/07/03 00:48:49;;;;;;;3.60;2.80;;;;;;;22.76;50.32;100986.13;5054434;28;20051;-66
2021/07/03 00:51:15;;;;;;;3.47;2.47;;;;;;;22.76;50.18;100988.81;5051225;28;20033;-66
2021/07/03 00:53:40;;;;;;;4.30;2.90;;;;;;;22.76;50.48;100982.63;5055213;28;20036;-66
2021/07/03 00:56:06;;;;;;;4.07;2.70;;;;;;;22.76;50.22;100977.28;5046333;28;20053;-66
2021/07/03 00:58:31;;;;;;;3.80;2.72;;;;;;;22.76;50.34;100982.63;5040000;28;20033;-66
2021/07/03 01:00:57;;;;;;;4.13;2.45;;;;;;;22.76;50.58;100987.97;5046327;28;20032;-66
2021/07/03 01:03:22;;;;;;;4.78;2.92;;;;;;;22.76;50.41;100985.31;4996419;28;20098;-66
2021/07/03 01:05:49;;;;;;;5.82;2.63;;;;;;;22.77;50.72;100987.78;5032821;28;20596;-66
2021/07/03 01:08:15;;;;;;;5.35;2.75;;;;;;;22.76;50.35;100978.09;5053316;28;20061;-66
2021/07/03 01:10:41;;;;;;;5.13;2.72;;;;;;;22.76;50.61;100974.63;5048315;28;20035;-66
2021/07/03 01:13:06;;;;;;;3.30;2.63;;;;;;;22.77;50.33;100976.25;5048962;28;20040;-66
2021/07/03 01:15:32;;;;;;;4.22;2.60;;;;;;;22.76;50.66;100972.75;5044559;28;20040;-66
2021/07/03 01:17:57;;;;;;;3.70;2.88;;;;;;;22.76;50.59;100970.09;5054223;28;20055;-66
2021/07/03 01:20:23;;;;;;;4.45;2.97;;;;;;;22.76;50.33;100967.41;5051738;28;20033;-66
2021/07/03 01:22:49;;;;;;;3.47;2.90;;;;;;;22.78;50.49;100969.88;5045037;28;20459;-66
2021/07/03 01:25:16;;;;;;;4.65;2.83;;;;;;;22.77;50.33;100966.38;5033527;28;20550;-66
2021/07/03 01:27:41;;;;;;;4.07;2.75;;;;;;;22.78;50.57;100964.50;5046883;28;20036;-66
2021/07/03 01:30:10;;;;;;;4.50;2.55;;;;;;;22.78;50.28;100964.50;5028252;28;20033;-66
2021/07/03 01:32:35;;;;;;;4.32;2.90;;;;;;;22.78;50.53;100959.16;5033254;28;20542;-66
2021/07/03 01:35:01;;;;;;;4.03;2.75;;;;;;;22.76;50.55;100963.91;5039864;28;20032;-66
2021/07/03 01:37:27;;;;;;;4.55;3.15;;;;;;;22.77;50.81;100969.03;5032615;28;20077;-66
2021/07/03 01:39:52;;;;;;;4.78;2.70;;;;;;;22.78;50.52;100961.84;5043242;28;20140;-66
2021/07/03 01:42:18;;;;;;;7.40;3.13;;;;;;;22.79;50.37;100966.16;5035190;28;20082;-66
2021/07/03 01:44:45;;;;;;;4.70;2.67;;;;;;;22.78;50.35;100956.50;5048928;28;20064;-66
2021/07/03 01:47:11;;;;;;;3.40;2.83;;;;;;;22.78;50.39;100960.00;5033764;28;20037;-66
2021/07/03 01:49:39;;;;;;;3.78;2.78;;;;;;;22.78;50.53;100953.81;5037642;28;20046;-66
2021/07/03 01:52:05;;;;;;;4.53;2.72;;;;;;;22.77;50.50;100947.66;5045858;28;20032;-66
2021/07/03 01:54:30;;;;;;;3.20;2.70;;;;;;;22.76;50.59;100948.69;5048957;28;20288;-66
2021/07/03 01:56:59;;;;;;;3.65;2.65;;;;;;;22.77;50.63;100949.50;5046963;28;20075;-67
2021/07/03 01:59:29;;;;;;;4.60;3.03;;;;;;;22.75;50.45;100944.38;5033666;28;20030;-66
2021/07/03 02:01:56;;;;;;;4.28;3.20;;;;;;;22.76;50.42;100942.53;5042005;28;20055;-66
2021/07/03 02:04:22;;;;;;;5.22;3.25;;;;;;;22.76;50.50;100938.00;5032527;28;20477;-66
2021/07/03 02:06:47;;;;;;;3.55;2.92;;;;;;;22.75;50.29;100940.88;5034998;28;20047;-66
2021/07/03 02:09:14;;;;;;;4.03;3.20;;;;;;;22.73;50.12;100935.75;5048824;28;20032;-66
2021/07/03 02:11:40;;;;;;;5.10;3.22;;;;;;;22.74;50.22;100948.09;5046844;28;20033;-66
2021/07/03 02:14:06;;;;;;;3.92;3.05;;;;;;;22.72;50.33;100936.75;5048364;28;20499;-66
2021/07/03 02:16:31;;;;;;;4.80;2.60;;;;;;;22.69;50.28;100938.00;5048238;28;20029;-66
2021/07/03 02:18:57;;;;;;;3.17;2.70;;;;;;;22.69;50.42;100938.00;5030415;28;20550;-66
2021/07/03 02:21:22;;;;;;;4.63;2.75;;;;;;;22.68;50.43;100932.88;5048356;28;20025;-66
2021/07/03 02:23:48;;;;;;;5.85;2.90;;;;;;;22.67;50.06;100942.75;5048393;28;20029;-66
2021/07/03 02:26:13;;;;;;;4.57;2.78;;;;;;;22.65;50.08;100939.47;5026231;28;20029;-66
2021/07/03 02:28:39;;;;;;;3.20;2.78;;;;;;;22.64;49.99;100934.34;5047681;28;20037;-66
2021/07/03 02:31:05;;;;;;;4.53;2.72;;;;;;;22.63;49.61;100932.72;5039683;28;20041;-66
2021/07/03 02:33:31;;;;;;;5.35;2.70;;;;;;;22.63;49.59;100925.50;5039309;28;20029;-66
2021/07/03 02:35:56;;;;;;;5.32;3.30;;;;;;;22.62;49.73;100926.53;5043433;28;20036;-66
2021/07/03 02:38:22;;;;;;;4.93;3.20;;;;;;;22.60;49.87;100922.44;5013032;28;20052;-66
2021/07/03 02:40:47;;;;;;;4.55;2.80;;;;;;;22.60;49.95;100920.59;5032840;28;20033;-66
2021/07/03 02:43:13;;;;;;;4.78;2.80;;;;;;;22.59;49.63;100923.47;5036788;28;20040;-66
2021/07/03 02:45:38;;;;;;;5.55;3.13;;;;;;;22.57;49.57;100912.19;5047405;28;20103;-66
2021/07/03 02:48:04;;;;;;;4.45;2.80;;;;;;;22.57;49.37;100912.19;5061018;28;20036;-66
2021/07/03 02:50:30;;;;;;;4.78;2.90;;;;;;;22.54;49.71;100916.09;5047478;28;20054;-66
2021/07/03 02:52:55;;;;;;;4.20;2.70;;;;;;;22.53;49.06;100909.09;5047936;28;20040;-66
2021/07/03 02:55:21;;;;;;;3.70;2.70;;;;;;;22.52;48.95;100912.81;5047492;28;20111;-66
2021/07/03 02:57:47;;;;;;;3.55;2.55;;;;;;;22.51;49.06;100903.16;5036958;28;20033;-66
2021/07/03 03:00:15;;;;;;;3.95;3.10;;;;;;;22.49;48.90;100905.22;5059996;28;20030;-66
2021/07/03 03:02:41;;;;;;;3.67;2.90;;;;;;;22.47;48.74;100899.28;5047708;28;20305;-66
2021/07/03 03:05:08;;;;;;;6.15;2.88;;;;;;;22.45;48.96;100893.31;5024576;28;20065;-66
2021/07/03 03:07:38;;;;;;;5.22;3.25;;;;;;;22.43;48.68;100892.72;5047460;28;20032;-66
2021/07/03 03:10:06;;;;;;;3.58;2.83;;;;;;;22.43;48.73;100895.38;5048435;28;20033;-66
2021/07/03 03:12:32;;;;;;;4.70;3.00;;;;;;;22.42;48.90;100883.06;5047138;28;20040;-66
2021/07/03 03:14:58;;;;;;;4.28;2.97;;;;;;;22.40;48.99;100871.75;5051475;28;20108;-66
2021/07/03 03:17:23;;;;;;;4.18;2.85;;;;;;;22.40;48.94;100877.09;5050466;28;20453;-66
2021/07/03 03:19:49;;;;;;;3.10;2.75;;;;;;;22.38;49.26;100871.97;5045533;28;20034;-66
2021/07/03 03:22:14;;;;;;;3.33;2.70;;;;;;;22.38;48.72;100873.81;5032988;28;20033;-66
2021/07/03 03:24:40;;;;;;;4.05;3.08;;;;;;;22.39;48.80;100875.44;5051102;28;20395;-66
2021/07/03 03:27:05;;;;;;;4.38;2.97;;;;;;;22.37;49.08;100878.34;5031698;28;20048;-66
2021/07/03 03:29:31;;;;;;;3.92;2.80;;;;;;;22.39;48.97;100873.59;5051334;28;20037;-66
2021/07/03 03:31:56;;;;;;;4.25;2.80;;;;;;;22.39;49.07;100875.44;5031527;28;20401;-66
2021/07/03 03:34:22;;;;;;;4.03;2.83;;;;;;;22.40;49.21;100874.41;5033295;28;20451;-66
2021/07/03 03:36:47;;;;;;;4.55;2.95;;;;;;;22.39;49.39;100865.56;5042196;28;20566;-66
2021/07/03 03:39:13;;;;;;;4.82;3.30;;;;;;;22.39;49.55;100873.59;5025040;28;20045;-66
2021/07/03 03:41:38;;;;;;;3.72;2.72;;;;;;;22.38;49.64;100873.81;5032157;28;20040;-66
2021/07/03 03:44:04;;;;;;;4.78;2.97;;;;;;;22.37;49.48;100869.50;5016402;28;20125;-66
2021/07/03 03:46:30;;;;;;;4.05;3.05;;;;;;;22.34;49.51;100864.59;5050221;28;20039;-66
2021/07/03 03:48:55;;;;;;;5.10;3.20;;;;;;;22.33;49.78;100849.59;5041412;28;20044;-66
2021/07/03 03:51:21;;;;;;;4.00;2.97;;;;;;;22.30;49.87;100848.16;5026681;28;20065;-66
2021/07/03 03:53:46;;;;;;;4.18;3.15;;;;;;;22.30;49.98;100856.19;5039173;28;20033;-66
2021/07/03 03:56:12;;;;;;;4.05;2.90;;;;;;;22.30;49.92;100853.50;5032317;28;20227;-66
2021/07/03 03:58:37;;;;;;;4.30;2.90;;;;;;;22.31;49.88;100840.97;5046392;28;20068;-66
2021/07/03 04:01:03;;;;;;;3.20;2.70;;;;;;;22.31;49.87;100847.13;5040940;28;20048;-66
2021/07/03 04:03:29;;;;;;;4.97;3.40;;;;;;;22.33;50.11;100838.91;5049955;28;20090;-66
2021/07/03 04:05:54;;;;;;;5.03;3.25;;;;;;;22.35;50.14;100836.81;5040312;28;20037;-66
2021/07/03 04:08:19;;;;;;;4.82;3.17;;;;;;;22.34;50.17;100833.34;5049620;28;20033;-66
2021/07/03 04:10:45;;;;;;;4.13;2.97;;;;;;;22.33;50.32;100830.88;5049961;28;20401;-66
2021/07/03 04:13:11;;;;;;;3.80;2.78;;;;;;;22.34;50.06;100835.19;5050296;28;20024;-66
2021/07/03 04:15:36;;;;;;;4.68;3.40;;;;;;;22.34;50.07;100840.53;5032736;28;20029;-66
2021/07/03 04:18:03;;;;;;;4.75;3.10;;;;;;;22.34;50.22;100829.84;5050401;28;20445;-66
2021/07/03 04:20:28;;;;;;;4.93;3.30;;;;;;;22.35;50.25;100831.47;5032088;28;20032;-66
2021/07/03 04:22:54;;;;;;;4.90;2.85;;;;;;;22.35;50.47;100836.81;5049997;28;20098;-66
2021/07/03 04:25:19;;;;;;;3.40;2.83;;;;;;;22.34;50.61;100840.53;5049354;28;20040;-66
2021/07/03 04:27:46;;;;;;;4.82;3.33;;;;;;;22.34;50.32;100835.19;5049252;28;20045;-66
2021/07/03 04:30:12;;;;;;;4.10;3.20;;;;;;;22.34;50.34;100837.88;5047149;28;20036;-66
2021/07/03 04:32:38;;;;;;;3.53;2.97;;;;;;;22.32;50.36;100834.59;5039489;28;20112;-66
2021/07/03 04:35:05;;;;;;;5.07;3.53;;;;;;;22.32;50.63;100846.09;5048629;28;20120;-66
2021/07/03 04:37:31;;;;;;;4.75;3.28;;;;;;;22.32;50.75;100847.94;5033953;28;20063;-67
2021/07/03 04:39:56;;;;;;;4.32;3.30;;;;;;;22.30;50.65;100848.16;5057113;28;20091;-66
2021/07/03 04:42:22;;;;;;;4.85;3.80;;;;;;;22.28;51.12;100858.25;5021629;28;20082;-66
2021/07/03 04:44:47;;;;;;;4.60;3.58;;;;;;;22.27;50.66;100853.13;5036933;28;20392;-67
2021/07/03 04:47:13;;;;;;;4.97;3.65;;;;;;;22.25;50.77;100850.66;5031287;28;20067;-66
2021/07/03 04:49:39;;;;;;;3.80;3.28;;;;;;;22.23;50.93;100852.72;5017703;28;20485;-66
2021/07/03 04:52:04;;;;;;;3.92;3.42;;;;;;;22.22;50.80;100853.75;5031354;28;20041;-66
2021/07/03 04:54:30;;;;;;;4.40;3.28;;;;;;;22.21;51.12;100859.31;5041522;28;20482;-66
2021/07/03 04:57:06;;;;;;;4.03;3.60;;;;;;;22.19;50.84;100856.03;5048636;28;20056;-66
2021/07/03 04:59:42;;;;;;;4.97;3.65;;;;;;;22.16;51.16;100856.47;5049607;28;20172;-66
2021/07/03 05:02:09;;;;;;;5.47;3.67;;;;;;;22.16;51.28;100859.13;5049214;28;20091;-66
2021/07/03 05:04:36;;;;;;;4.97;3.85;;;;;;;22.16;51.05;100859.94;5028371;28;20875;-66
2021/07/03 05:07:03;;;;;;;4.55;3.55;;;;;;;22.16;51.28;100859.13;5046200;28;20190;-66
2021/07/03 05:09:28;;;;;;;5.07;3.92;;;;;;;22.14;51.19;100855.84;5049476;28;20064;-66
2021/07/03 05:11:54;;;;;;;5.13;3.60;;;;;;;22.13;51.13;100854.22;5048980;28;20115;-66
2021/07/03 05:14:20;;;;;;;4.88;3.65;;;;;;;22.10;51.01;100858.97;5049410;28;20056;-66
2021/07/03 05:16:45;;;;;;;4.25;3.22;;;;;;;22.08;51.17;100855.66;5031514;28;20040;-66
2021/07/03 05:19:10;;;;;;;5.13;3.42;;;;;;;22.06;51.30;100852.38;5048955;28;20128;-66
2021/07/03 05:21:36;;;;;;;5.18;3.85;;;;;;;;;;5048362;28;20033;-66
2021/07/03 05:24:01;;;;;;;3.75;3.38;;;;;;;22.05;51.12;100850.75;5035575;28;20028;-66
2021/07/03 05:26:27;;;;;;;6.15;3.53;;;;;;;22.02;51.41;100850.31;5048197;28;20041;-66
2021/07/03 05:28:52;;;;;;;5.00;3.50;;;;;;;22.02;51.36;100845.78;5048924;28;20037;-66
2021/07/03 05:31:18;;;;;;;4.75;3.70;;;;;;;22.01;51.30;100852.16;5043361;28;20052;-65
2021/07/03 05:33:43;;;;;;;5.40;3.63;;;;;;;22.01;51.37;100840.66;5025930;28;20424;-66
2021/07/03 05:36:09;;;;;;;4.30;3.38;;;;;;;22.02;51.53;100839.63;5042201;28;20480;-66
2021/07/03 05:38:41;;;;;;;5.35;3.75;;;;;;;22.00;51.84;100837.19;5035377;28;20063;-66
2021/07/03 05:41:09;;;;;;;4.40;3.50;;;;;;;22.01;51.77;100832.66;5035613;28;20034;-66
2021/07/03 05:43:35;;;;;;;5.43;3.65;;;;;;;21.99;51.73;100832.03;5029498;28;20033;-66
2021/07/03 05:46:01;;;;;;;3.95;2.90;;;;;;;21.99;51.49;100822.19;5048714;28;20052;-66
2021/07/03 05:48:27;;;;;;;4.47;3.28;;;;;;;21.98;51.92;100825.06;5043483;28;20037;-66
2021/07/03 05:50:52;;;;;;;4.32;3.03;;;;;;;21.97;51.89;100826.91;5038505;28;20486;-65
2021/07/03 05:53:18;;;;;;;5.40;3.33;;;;;;;21.97;51.87;100826.91;5047924;28;20392;-66
2021/07/03 05:55:44;;;;;;;4.05;3.20;;;;;;;21.97;51.52;100829.59;5048454;28;20136;-66
2021/07/03 05:58:09;;;;;;;4.90;3.30;;;;;;;21.97;51.78;100828.78;5030767;28;20663;-66
2021/07/03 06:00:35;;;;;;;4.82;3.25;;;;;;;21.97;52.02;100820.75;5048362;28;20044;-66
2021/07/03 06:03:00;;;;;;;4.80;3.15;;;;;;;21.98;51.81;100825.88;5048985;28;20091;-66
2021/07/03 06:05:26;;;;;;;6.18;3.25;;;;;;;21.98;51.79;100820.53;5024752;28;20114;-66
2021/07/03 06:07:51;;;;;;;5.25;3.13;;;;;;;21.97;52.09;100818.91;5030545;28;20124;-66
2021/07/03 06:10:17;;;;;;;4.63;3.20;;;;;;;21.96;52.05;100822.63;5048352;28;20421;-66
2021/07/03 06:12:42;;;;;;;3.58;3.00;;;;;;;21.96;51.79;100811.09;5038501;28;20635;-66
2021/07/03 06:15:09;;;;;;;4.10;2.95;;;;;;;21.95;52.02;100812.97;5029796;28;20337;-66
2021/07/03 06:17:34;;;;;;;3.75;2.63;;;;;;;21.95;51.95;100817.50;5048170;28;20079;-66
2021/07/03 06:20:00;;;;;;;5.97;3.20;;;;;;;21.95;51.97;100820.16;5048760;28;20029;-66
2021/07/03 06:22:25;;;;;;;4.15;2.78;;;;;;;21.95;51.82;100817.50;5036398;28;20055;-66
2021/07/03 06:24:51;;;;;;;4.05;3.05;;;;;;;21.93;51.78;100806.97;5048203;28;20041;-66
2021/07/03 06:27:16;;;;;;;4.25;3.03;;;;;;;21.93;52.01;100806.16;5047872;28;20061;-66
2021/07/03 06:29:42;;;;;;;3.72;2.88;;;;;;;21.92;52.06;100802.69;5044328;28;20041;-66
2021/07/03 06:32:08;;;;;;;4.28;2.70;;;;;;;21.93;52.12;100801.66;5037113;28;20037;-66
2021/07/03 06:34:34;;;;;;;4.45;3.20;;;;;;;21.93;52.35;100803.50;5048216;28;20025;-66
2021/07/03 06:37:00;;;;;;;3.80;2.85;;;;;;;21.93;52.05;100798.97;5037390;28;20029;-66
2021/07/03 06:39:25;;;;;;;4.22;2.90;;;;;;;21.92;52.29;100804.53;5034566;28;20041;-66
2021/07/03 06:41:51;;;;;;;4.22;2.67;;;;;;;21.91;52.70;100803.72;5011910;28;20127;-66
2021/07/03 06:44:16;;;;;;;3.28;2.53;;;;;;;21.90;52.67;100795.91;5039643;28;20071;-66
2021/07/03 06:46:42;;;;;;;4.25;2.67;;;;;;;21.89;52.69;100794.28;5029549;28;20050;-66
2021/07/03 06:49:07;;;;;;;3.17;2.55;;;;;;;21.89;52.64;100795.09;5040159;28;20130;-66
2021/07/03 06:51:33;;;;;;;3.92;2.38;;;;;;;21.88;53.01;100798.81;5022385;28;20253;-66
2021/07/03 06:54:01;;;;;;;4.55;2.60;;;;;;;21.88;53.01;100796.13;5052236;28;20404;-66
2021/07/03 06:56:29;;;;;;;3.95;2.53;;;;;;;21.87;52.73;100797.16;5047209;28;20068;-66
2021/07/03 06:58:54;;;;;;;4.25;2.85;;;;;;;21.87;53.19;100791.81;5011862;28;20037;-66
2021/07/03 07:01:20;;;;;;;4.80;2.80;;;;;;;21.86;53.13;100794.72;5044659;28;20037;-66
2021/07/03 07:03:45;;;;;;;4.18;2.72;;;;;;;21.85;53.22;100791.22;5033978;28;20075;-66
2021/07/03 07:06:11;;;;;;;4.03;2.50;;;;;;;21.84;52.92;100797.59;5028549;28;20041;-66
2021/07/03 07:08:36;;;;;;;4.60;2.70;;;;;;;21.84;53.12;100789.59;5034039;28;20037;-66
2021/07/03 07:11:03;;;;;;;4.13;2.80;;;;;;;21.83;53.14;100796.78;5033746;28;20029;-66
2021/07/03 07:13:29;;;;;;;4.90;2.90;;;;;;;21.83;52.98;100786.09;5033743;28;20039;-66
2021/07/03 07:15:54;;;;;;;17.80;3.08;;;;;;;21.83;53.22;100786.09;5052347;28;20033;-65
2021/07/03 07:18:20;;;;;;;4.65;2.90;;;;;;;21.84;53.37;100789.59;5051141;28;20144;-65
2021/07/03 07:20:46;;;;;;;7.22;3.08;;;;;;;21.83;53.50;100788.75;5051591;28;20724;-65
2021/07/03 07:23:11;;;;;;;5.20;3.03;;;;;;;21.83;53.71;100785.28;5051422;28;20039;-65
2021/07/03 07:25:36;;;;;;;4.93;2.95;;;;;;;21.83;53.63;100788.75;5035557;28;20154;-65
2021/07/03 07:28:02;;;;;;;10.13;2.90;;;;;;;21.83;53.71;100787.94;5045507;28;20071;-65
2021/07/03 07:30:28;;;;;;;4.63;2.70;;;;;;;21.85;53.92;100801.09;5051200;28;20033;-65
2021/07/03 07:32:53;;;;;;;5.20;3.22;;;;;;;21.83;54.13;100793.28;5061343;28;20037;-65
2021/07/03 07:35:19;;;;;;;4.15;3.08;;;;;;;21.84;54.12;100800.25;5043548;28;20037;-66
2021/07/03 07:37:48;;;;;;;5.60;3.13;;;;;;;21.86;54.25;100797.38;5047689;28;20166;-67
2021/07/03 07:40:14;;;;;;;4.72;3.05;;;;;;;21.86;54.28;100800.88;5057982;28;20036;-66
2021/07/03 07:42:40;;;;;;;5.53;3.20;;;;;;;21.87;54.24;100789.16;5036667;28;20144;-65
2021/07/03 07:45:06;;;;;;;7.47;3.28;;;;;;;21.88;54.41;100781.97;5027680;28;20037;-65
2021/07/03 07:47:31;;;;;;;6.13;2.97;;;;;;;21.89;54.59;100784.41;5012587;28;20169;-66
2021/07/03 07:49:57;;;;;;;6.13;3.42;;;;;;;21.89;54.77;100789.75;5038000;28;20139;-65
2021/07/03 07:52:22;;;;;;;5.85;3.58;;;;;;;21.91;54.76;100794.88;5039449;28;20726;-65
2021/07/03 07:54:48;;;;;;;5.60;3.30;;;;;;;21.90;54.59;100804.75;5048619;28;20029;-66
2021/07/03 07:57:13;;;;;;;6.07;3.67;;;;;;;21.89;54.99;100800.44;5043586;28;20115;-66
2021/07/03 07:59:39;;;;;;;6.25;3.42;;;;;;;21.90;54.88;100812.75;5036394;28;20060;-65
2021/07/03 08:02:04;;;;;;;7.47;3.55;;;;;;;21.91;54.53;100809.06;5048109;28;20032;-64
2021/07/03 08:04:30;;;;;;;9.18;3.70;;;;;;;21.90;54.51;100815.44;5036119;28;20025;-65
2021/07/03 08:06:55;;;;;;;5.97;3.30;;;;;;;21.92;54.52;100807.19;5042226;28;20052;-65
2021/07/03 08:09:21;;;;;;;7.78;3.28;;;;;;;21.92;54.72;100809.88;5046762;28;20067;-65
2021/07/03 08:11:46;;;;;;;6.32;3.17;;;;;;;21.92;54.77;100801.84;5043396;28;20068;-66
2021/07/03 08:14:12;;;;;;;8.13;3.63;;;;;;;21.93;54.66;100809.66;5049177;28;20095;-65
2021/07/03 08:16:37;;;;;;;6.53;3.60;;;;;;;21.94;54.70;100803.31;5049994;28;20032;-65
2021/07/03 08:19:03;;;;;;;7.03;3.70;;;;;;;21.96;54.76;100798.56;5049844;28;20119;-65
2021/07/03 08:21:28;;;;;;;7.43;3.67;;;;;;;21.98;54.85;100795.69;5048866;28;20151;-65
2021/07/03 08:23:54;;;;;;;6.80;3.70;;;;;;;21.98;55.08;100793.84;5049208;28;20476;-65
2021/07/03 08:26:19;;;;;;;6.38;3.10;;;;;;;21.97;54.61;100792.19;5031451;28;20469;-65
2021/07/03 08:28:45;;;;;;;10.43;3.88;;;;;;;21.97;54.83;100792.19;5030724;28;20037;-65
2021/07/03 08:31:10;;;;;;;5.80;3.80;;;;;;;21.98;54.67;100785.00;5030806;28;20037;-65
2021/07/03 08:33:36;;;;;;;5.78;3.22;;;;;;;21.99;54.51;100790.13;5032821;28;20120;-65
2021/07/03 08:36:01;;;;;;;5.43;3.00;;;;;;;21.98;54.50;100782.34;5034550;28;20030;-65
2021/07/03 08:38:27;;;;;;;4.78;3.28;;;;;;;21.98;54.67;100783.16;5031340;28;20033;-65
2021/07/03 08:40:55;;;;;;;6.55;3.20;;;;;;;21.98;54.79;100775.13;5031037;28;20034;-66
2021/07/03 08:43:20;;;;;;;5.30;2.95;;;;;;;21.97;54.43;100773.50;5046335;28;20040;-65
2021/07/03 08:45:46;;;;;;;6.03;3.05;;;;;;;21.98;54.77;100771.66;5047675;28;20041;-66
2021/07/03 08:48:18;;;;;;;4.88;3.10;;;;;;;21.96;54.78;100763.84;5049201;28;20036;-66
2021/07/03 08:50:43;;;;;;;5.30;3.00;;;;;;;21.98;54.49;100766.31;5044265;28;20104;-65
2021/07/03 08:53:09;;;;;;;9.07;3.90;;;;;;;21.98;55.01;100760.97;5046446;28;20521;-64
2021/07/03 08:55:35;;;;;;;5.78;3.20;;;;;;;21.97;54.94;100762.81;5046516;28;20040;-64
2021/07/03 08:58:04;;;;;;;7.25;3.40;;;;;;;21.98;54.54;100760.97;5049231;28;20053;-68
2021/07/03 09:00:33;;;;;;;6.82;3.67;;;;;;;21.97;54.72;100757.47;5049486;28;20032;-66
2021/07/03 09:02:59;;;;;;;7.13;3.22;;;;;;;21.98;55.13;100764.44;5049691;28;20036;-65
2021/07/03 09:05:29;;;;;;;8.15;3.60;;;;;;;21.97;54.88;100754.00;5049212;28;20418;-69
2021/07/03 09:08:03;;;;;;;10.70;4.38;;;;;;;21.96;55.11;100758.50;5046403;28;20206;-66
2021/07/03 09:10:30;;;;;;;7.60;3.77;;;;;;;21.95;55.42;100753.38;5061308;28;20112;-62
2021/07/03 09:13:01;;;;;;;7.25;3.85;;;;;;;21.95;55.08;100756.88;5048410;28;20679;-66
2021/07/03 09:15:36;;;;;;;8.82;3.80;;;;;;;21.94;55.28;100754.41;5048414;28;20104;-67
2021/07/03 09:18:04;;;;;;;23.38;5.32;;;;;;;21.93;55.53;100750.91;5049133;28;20033;-65
2021/07/03 09:20:36;;;;;;;17.67;4.30;;;;;;;21.93;55.79;100747.41;5048787;28;20060;-64
2021/07/03 09:23:03;;;;;;;15.25;4.45;;;;;;;21.94;56.16;100741.88;5049677;28;20545;-63
2021/07/03 09:25:28;;;;;;;12.63;4.18;;;;;;;21.94;56.32;100752.56;5037600;28;20041;-63
2021/07/03 09:27:55;;;;;;;11.52;4.20;;;;;;;21.94;56.27;100743.72;5036448;28;20037;-64
2021/07/03 09:30:22;;;;;;;10.70;4.20;;;;;;;21.93;56.22;100745.56;5032645;28;20033;-64
2021/07/03 09:32:52;;;;;;;9.07;3.78;;;;;;;21.94;56.39;100746.41;5048959;28;20390;-68
2021/07/03 09:35:19;;;;;;;8.38;3.97;;;;;;;21.96;56.48;100744.34;5049607;28;20032;-65
2021/07/03 09:37:46;;;;;;;9.52;4.10;;;;;;;21.95;56.46;100737.34;5034459;28;20437;-66
2021/07/03 09:40:11;;;;;;;9.50;4.35;;;;;;;21.95;56.62;100732.84;5029040;28;20072;-66
2021/07/03 09:42:39;;;;;;;9.27;3.80;;;;;;;21.94;56.46;100731.19;5030950;28;20033;-65
2021/07/03 09:45:07;;;;;;;11.50;4.03;;;;;;;21.95;56.61;100732.84;5042943;28;20032;-65
2021/07/03 09:47:33;;;;;;;11.68;4.60;;;;;;;21.95;56.67;100727.50;5042294;28;20045;-64
2021/07/03 09:50:12;;;;;;;8.57;3.90;;;;;;;21.94;56.64;100731.19;5048793;28;20120;-63
2021/07/03 09:52:38;;;;;;;9.52;3.88;;;;;;;21.98;56.69;100731.59;5046584;28;20064;-63
2021/07/03 09:55:06;;;;;;;9.50;4.20;;;;;;;21.99;56.85;100731.38;5047035;28;20033;-64
2021/07/03 09:57:37;;;;;;;8.32;4.20;;;;;;;21.99;56.76;100731.38;5044932;28;20052;-64
2021/07/03 10:00:10;;;;;;;7.80;4.30;;;;;;;21.98;56.97;100728.91;5045334;28;20033;-63
2021/07/03 10:02:51;;;;;;;6.70;4.38;;;;;;;21.98;56.67;100740.41;5048446;28;20051;-64
2021/07/03 10:05:20;;;;;;;7.00;4.75;;;;;;;21.98;56.69;100736.94;5039821;28;20108;-64
2021/07/03 10:07:51;;;;;;;7.00;4.03;;;;;;;21.98;56.99;100737.75;5035228;28;20091;-64
2021/07/03 10:10:22;;;;;;;8.27;4.40;;;;;;;21.96;57.02;100731.81;5048984;28;20033;-64
2021/07/03 10:12:58;;;;;;;7.25;4.07;;;;;;;21.96;56.58;100736.31;5035528;28;20711;-66
2021/07/03 10:15:32;;;;;;;8.90;4.22;;;;;;;21.96;56.63;100737.16;5045092;28;20114;-64
2021/07/03 10:18:13;;;;;;;7.87;4.50;;;;;;;21.95;56.73;100727.50;5045746;28;20033;-64
2021/07/03 10:20:39;;;;;;;8.00;4.80;;;;;;;21.98;56.82;100728.91;5032711;28;20242;-64
2021/07/03 10:23:05;;;;;;;8.13;5.07;;;;;;;21.98;57.21;100729.72;5047488;28;20378;-64
2021/07/03 10:25:37;;;;;;;8.00;4.65;;;;;;;21.97;57.18;100733.44;5049061;28;20611;-64
2021/07/03 10:28:07;;;;;;;9.82;5.40;;;;;;;21.98;57.20;100729.72;5047962;28;20377;-64
2021/07/03 10:30:33;;;;;;;9.10;5.10;;;;;;;21.97;57.31;100722.75;5045975;28;20064;-64
2021/07/03 10:33:01;;;;;;;10.77;5.20;;;;;;;21.97;57.29;100720.09;5048410;28;20033;-64
2021/07/03 10:35:44;;;;;;;7.95;4.90;;;;;;;21.96;57.81;100722.97;5038841;28;20091;-65
2021/07/03 10:38:19;;;;;;;7.95;5.00;;;;;;;21.96;57.80;100726.47;5031617;28;20384;-63
2021/07/03 10:40:45;;;;;;;7.97;4.50;;;;;;;21.97;57.76;100720.09;5035233;28;20037;-66
2021/07/03 10:43:12;;;;;;;12.43;5.43;;;;;;;21.98;57.77;100718.22;5039513;28;20095;-65
2021/07/03 10:45:55;;;;;;;7.47;5.00;;;;;;;21.95;57.81;100719.47;5044355;28;20033;-65
2021/07/03 10:48:25;;;;;;;6.13;4.75;;;;;;;21.98;57.74;100719.03;5043666;28;20516;-65
2021/07/03 10:50:54;;;;;;;9.45;5.35;;;;;;;21.98;57.81;100719.03;5045005;28;20029;-65
2021/07/03 10:53:29;;;;;;;10.35;5.80;;;;;;;21.97;57.98;100708.56;5043890;28;20037;-65
2021/07/03 10:55:55;;;;;;;;;;;;;;;21.89;58.38;100698.94;5044516;28;20740;-65
2021/07/03 10:58:27;;;;;;;7.72;5.63;;;;;;;21.94;58.17;100701.81;5045281;28;20598;-65
2021/07/03 11:00:53;;;;;;;8.27;5.60;;;;;;;21.96;58.26;100698.94;5045576;28;20025;-64
2021/07/03 11:03:23;;;;;;;8.38;5.55;;;;;;;21.96;58.14;100691.72;5045106;28;20044;-65
2021/07/03 11:05:49;;;;;;;8.93;5.82;;;;;;;21.97;58.62;100695.22;5041405;28;20148;-65
2021/07/03 11:08:16;;;;;;;8.95;5.90;;;;;;;21.96;58.78;100694.41;5051610;28;20123;-65
2021/07/03 11:10:42;;;;;;;6.93;5.57;;;;;;;21.97;58.70;100695.22;5047402;28;20114;-63
2021/07/03 11:13:22;;;;;;;8.65;5.93;;;;;;;21.95;58.93;100692.78;5047759;28;20121;-64
2021/07/03 11:15:47;;;;;;;8.98;5.78;;;;;;;21.96;58.83;100694.41;5045913;28;20039;-63
2021/07/03 11:18:13;;;;;;;8.43;4.68;;;;;;;21.96;58.93;100693.59;5047688;28;20119;-63
2021/07/03 11:20:42;;;;;;;7.38;5.32;;;;;;;21.95;58.45;100694.63;5046789;28;20058;-63
2021/07/03 11:23:08;;;;;;;5.82;4.43;;;;;;;21.95;58.74;100705.31;5041147;28;20024;-63